Time;durP1;ratioP1;P1;durP2;ratioP2;P2;SDS_P1;SDS_P2;PMS_P1;PMS_P2;Temp;Humidity;BMP_temperature;BMP_pressure;BME280_temperature;BME280_humidity;BME280_pressure;Samples;Min_cycle;Max_cycle;Signal;HPM_P1;HPM_P2
2023/03/23 00:00:58;;;;;;;21.80;14.50;;;;;;;6.62;85.86;98588.72;269900;1273;22304;-84
2023/03/23 00:07:02;;;;;;;26.70;17.10;;;;;;;6.45;86.28;98589.14;273013;1272;23106;-84
2023/03/23 00:13:28;;;;;;;26.10;16.40;;;;;;;6.30;86.82;98586.67;273030;1271;22421;-84
2023/03/23 00:19:32;;;;;;;25.70;16.30;;;;;;;6.20;87.34;98587.77;272858;1273;22360;-84
2023/03/23 00:25:57;;;;;;;27.40;16.30;;;;;;;6.13;87.86;98589.86;272858;1258;22314;-84
2023/03/23 00:31:59;;;;;;;29.30;18.20;;;;;;;6.03;88.01;98589.87;272993;1272;22521;-84
2023/03/23 00:38:46;;;;;;;30.60;18.90;;;;;;;5.92;88.36;98583.81;273016;1273;22450;-83
2023/03/23 00:45:10;;;;;;;36.40;20.90;;;;;;;5.83;88.75;98579.00;272970;1272;22376;-84
2023/03/23 00:51:43;;;;;;;32.80;20.70;;;;;;;5.71;89.00;98572.64;272786;1267;23206;-84
2023/03/23 00:58:26;;;;;;;33.10;21.10;;;;;;;5.56;89.18;98568.17;272259;1275;22193;-84
2023/03/23 01:04:51;;;;;;;34.90;23.20;;;;;;;5.39;89.56;98565.30;272959;1273;22407;-84
2023/03/23 01:11:05;;;;;;;41.60;24.00;;;;;;;5.30;90.09;98561.41;271610;1273;23016;-84
2023/03/23 01:17:49;;;;;;;38.60;24.00;;;;;;;5.22;90.35;98559.14;272072;1272;22288;-84
2023/03/23 01:23:58;;;;;;;38.90;23.50;;;;;;;5.11;90.64;98553.19;270892;1272;22541;-84
2023/03/23 01:29:59;;;;;;;40.50;26.60;;;;;;;4.98;90.81;98558.59;269494;1272;24325;-84
2023/03/23 01:36:10;;;;;;;41.40;26.80;;;;;;;4.90;91.34;98559.45;269188;1271;22603;-84
2023/03/23 01:42:12;;;;;;;39.00;25.30;;;;;;;4.82;91.74;98558.17;269539;1275;23019;-83
2023/03/23 01:48:55;;;;;;;36.00;23.70;;;;;;;4.76;92.05;98556.84;270295;1274;22402;-83
2023/03/23 01:55:40;;;;;;;34.00;22.30;;;;;;;4.71;92.39;98565.07;271900;1270;22365;-84
2023/03/23 02:01:44;;;;;;;35.80;22.50;;;;;;;4.65;92.69;98567.55;272835;1273;22457;-84
2023/03/23 02:08:28;;;;;;;38.80;23.20;;;;;;;4.66;93.05;98567.41;270080;1271;22546;-83
2023/03/23 02:14:45;;;;;;;34.60;21.70;;;;;;;4.66;93.29;98565.95;269497;1273;24306;-84
2023/03/23 02:21:26;;;;;;;40.90;23.20;;;;;;;4.65;93.47;98569.26;269426;1274;22554;-84
2023/03/23 02:28:15;;;;;;;36.70;23.30;;;;;;;4.70;94.08;98565.13;271042;1272;25300;-84
2023/03/23 02:34:44;;;;;;;33.00;21.00;;;;;;;4.76;94.51;98566.53;272971;1272;22172;-84
2023/03/23 02:40:48;;;;;;;30.70;18.70;;;;;;;4.74;94.44;98566.09;272808;1272;23368;-85
2023/03/23 02:47:02;;;;;;;29.60;19.30;;;;;;;4.74;94.65;98565.77;273012;1263;22274;-84
2023/03/23 02:53:25;;;;;;;26.60;17.00;;;;;;;4.80;95.08;98557.34;272322;1273;22601;-84
2023/03/23 02:59:54;;;;;;;23.30;15.20;;;;;;;4.90;95.59;98555.98;270121;1273;24207;-84
2023/03/23 03:06:36;;;;;;;28.90;17.10;;;;;;;4.98;95.94;98551.15;269179;1271;23880;-85
2023/03/23 03:13:10;;;;;;;28.80;18.50;;;;;;;4.95;95.57;98544.08;268745;1271;22606;-84
2023/03/23 03:19:38;;;;;;;25.60;16.60;;;;;;;4.92;95.98;98541.38;269151;1273;22537;-84
2023/03/23 03:25:42;;;;;;;21.30;12.70;;;;;;;4.95;96.28;98535.89;271642;1272;22409;-83
2023/03/23 03:32:05;;;;;;;19.10;12.90;;;;;;;4.98;96.42;98533.63;270725;1274;22652;-84
2023/03/23 03:38:09;;;;;;;20.20;13.50;;;;;;;4.99;96.45;98526.91;270682;1275;22556;-84
2023/03/23 03:44:11;;;;;;;27.20;14.60;;;;;;;4.93;96.37;98525.45;269930;1272;22633;-83
2023/03/23 03:50:28;;;;;;;26.40;16.80;;;;;;;4.81;96.41;98528.41;271494;1271;22251;-84
2023/03/23 03:56:31;;;;;;;28.70;16.30;;;;;;;4.77;96.82;98525.34;271154;1272;23430;-84
2023/03/23 04:03:04;;;;;;;28.90;16.80;;;;;;;4.75;96.98;98522.65;271962;1275;22615;-84
2023/03/23 04:09:40;;;;;;;30.00;17.30;;;;;;;4.71;97.02;98518.77;269516;1272;22507;-83
2023/03/23 04:16:26;;;;;;;33.70;18.50;;;;;;;4.65;97.08;98519.52;268875;1268;22711;-84
2023/03/23 04:23:08;;;;;;;30.10;17.00;;;;;;;4.64;97.40;98516.55;269116;1270;23141;-83
2023/03/23 04:29:12;;;;;;;36.40;18.00;;;;;;;4.63;97.63;98519.40;269890;1272;22929;-84
2023/03/23 04:35:57;;;;;;;50.80;21.50;;;;;;;4.62;97.86;98516.64;269338;1275;22564;-85
2023/03/23 04:42:32;;;;;;;32.80;16.60;;;;;;;4.63;98.15;98513.21;269615;1272;22542;-85
2023/03/23 04:49:57;;;;;;;23.00;11.70;;;;;;;4.63;98.36;98511.02;269656;1272;94304;-82
2023/03/23 04:56:38;;;;;;;29.40;15.90;;;;;;;4.67;98.81;98516.80;269389;1274;23310;-85
2023/03/23 05:03:27;;;;;;;31.40;17.30;;;;;;;4.74;98.75;98523.48;268777;1274;25332;-84
2023/03/23 05:09:53;;;;;;;41.50;18.80;;;;;;;4.81;98.83;98530.94;269188;1272;22556;-83
2023/03/23 05:16:17;;;;;;;34.30;20.00;;;;;;;4.87;99.08;98531.65;268877;1272;22539;-85
2023/03/23 05:22:23;;;;;;;32.00;20.40;;;;;;;4.95;99.38;98533.70;272630;1262;23881;-86
2023/03/23 05:28:53;;;;;;;34.90;21.90;;;;;;;5.06;99.69;98530.67;269423;1272;22785;-85
2023/03/23 05:35:13;;;;;;;28.50;18.80;;;;;;;5.20;99.76;98524.18;270470;1271;22603;-85
2023/03/23 05:41:17;;;;;;;31.30;18.70;;;;;;;5.32;99.70;98523.00;272101;1272;22786;-85
2023/03/23 05:47:19;;;;;;;27.80;17.50;;;;;;;5.61;100.00;98522.30;272817;1272;22415;-86
2023/03/23 05:53:44;;;;;;;23.10;15.00;;;;;;;6.04;100.00;98526.08;272842;1271;22380;-86
2023/03/23 06:00:19;;;;;;;25.70;14.50;;;;;;;6.51;100.00;98537.53;272297;1273;24100;-85
2023/03/23 06:07:46;;;;;;;31.40;16.50;;;;;;;7.18;100.00;98545.52;270606;1273;24185;-85
2023/03/23 06:13:48;;;;;;;30.50;16.80;;;;;;;7.72;100.00;98538.94;271155;1272;23816;-84
2023/03/23 06:19:50;;;;;;;23.30;14.90;;;;;;;8.08;100.00;98528.93;271254;1270;22485;-85
2023/03/23 06:25:58;;;;;;;28.80;14.90;;;;;;;8.65;100.00;98519.61;272700;1273;23235;-85
2023/03/23 06:32:22;;;;;;;28.50;14.20;;;;;;;9.29;100.00;98517.91;272613;1273;23201;-85
2023/03/23 06:39:07;;;;;;;24.90;13.60;;;;;;;9.92;99.95;98519.30;271032;1271;22362;-85
2023/03/23 06:45:31;;;;;;;24.00;13.00;;;;;;;10.46;99.25;98515.38;269475;1273;22600;-85
2023/03/23 06:52:00;;;;;;;18.30;9.90;;;;;;;11.34;98.73;98507.80;269188;1260;25345;-85
2023/03/23 06:58:18;;;;;;;10.50;6.00;;;;;;;12.24;97.12;98514.36;272138;1264;22488;-85
2023/03/23 07:05:01;;;;;;;9.00;4.20;;;;;;;12.88;94.96;98517.63;272642;1270;22581;-85
2023/03/23 07:11:25;;;;;;;6.00;4.00;;;;;;;13.36;92.45;98524.64;271691;1272;22367;-84
2023/03/23 07:18:15;;;;;;;8.70;4.20;;;;;;;13.79;91.41;98519.09;270350;1270;25784;-85
2023/03/23 07:24:57;;;;;;;6.60;3.90;;;;;;;14.28;90.21;98514.98;269869;1271;26465;-85
2023/03/23 07:31:23;;;;;;;5.20;3.30;;;;;;;14.75;88.35;98517.25;273095;1270;22928;-85
2023/03/23 07:37:29;;;;;;;6.30;3.90;;;;;;;15.10;86.50;98511.56;272959;1271;22393;-85
2023/03/23 07:43:32;;;;;;;10.50;5.10;;;;;;;15.28;84.15;98507.42;273114;1272;22188;-85
2023/03/23 07:50:06;;;;;;;5.80;3.90;;;;;;;15.36;83.04;98512.83;272075;1270;23528;-85
2023/03/23 07:56:54;;;;;;;5.70;4.10;;;;;;;15.61;81.72;98511.81;269742;1261;22779;-85
2023/03/23 08:03:02;;;;;;;5.70;4.10;;;;;;;15.95;80.51;98514.07;271808;1262;23587;-86
2023/03/23 08:10:00;;;;;;;6.50;3.70;;;;;;;16.29;79.13;98519.81;269924;1271;22535;-85
2023/03/23 08:16:43;;;;;;;4.90;3.20;;;;;;;16.42;76.97;98523.05;269820;1271;22676;-86
2023/03/23 08:23:03;;;;;;;4.60;3.10;;;;;;;16.28;75.11;98531.28;270504;1271;22597;-85
2023/03/23 08:29:26;;;;;;;7.30;3.40;;;;;;;16.14;73.96;98534.39;270765;1272;22560;-86
2023/03/23 08:35:42;;;;;;;6.70;3.60;;;;;;;16.14;73.75;98531.94;270295;1272;22418;-85
2023/03/23 08:42:50;;;;;;;4.60;3.00;;;;;;;16.18;72.76;98532.33;271598;1272;22408;-84
2023/03/23 08:49:11;;;;;;;4.70;3.10;;;;;;;16.27;71.57;98529.23;271771;1271;22394;-86
2023/03/23 08:56:28;;;;;;;5.90;2.60;;;;;;;16.39;70.54;98523.48;273343;1271;23269;-83
2023/03/23 09:03:23;;;;;;;4.40;2.90;;;;;;;16.56;70.50;98524.81;272969;1271;22408;-83
2023/03/23 09:09:44;;;;;;;7.90;2.60;;;;;;;16.71;69.33;98525.23;273364;1272;22466;-83
2023/03/23 09:15:46;;;;;;;5.80;2.60;;;;;;;16.89;67.98;98525.01;271884;1270;23682;-83
2023/03/23 09:22:08;;;;;;;8.00;2.30;;;;;;;17.04;67.22;98527.98;273261;1270;24242;-83
2023/03/23 09:28:10;;;;;;;3.40;2.50;;;;;;;17.09;65.73;98530.73;273060;1272;22448;-83
2023/03/23 09:34:16;;;;;;;6.70;3.10;;;;;;;17.17;64.85;98533.48;273073;1270;23115;-83
2023/03/23 09:40:50;;;;;;;4.40;2.20;;;;;;;17.34;64.63;98534.05;271235;1271;22315;-86
2023/03/23 09:47:36;;;;;;;3.10;2.40;;;;;;;17.68;63.62;98526.02;273210;1270;22391;-84
2023/03/23 09:54:05;;;;;;;4.10;2.40;;;;;;;18.08;62.50;98514.23;273210;1270;22339;-83
2023/03/23 10:00:36;;;;;;;5.20;2.80;;;;;;;18.94;60.72;98503.88;272695;1271;25237;-83
2023/03/23 10:06:47;;;;;;;3.80;2.40;;;;;;;20.40;60.40;98499.42;270173;1272;22520;-83
2023/03/23 10:12:54;;;;;;;4.00;2.20;;;;;;;21.00;58.19;98497.64;270284;1262;23798;-83
2023/03/23 10:19:21;;;;;;;7.90;2.60;;;;;;;21.05;56.29;98496.33;270812;1271;22472;-86
2023/03/23 10:25:57;;;;;;;;;;;;;;;22.24;54.34;98485.25;273177;1270;22554;-85
2023/03/23 10:32:10;;;;;;;2.90;1.90;;;;;;;23.23;51.73;98468.77;272395;1270;22510;-85
2023/03/23 10:38:17;;;;;;;2.90;2.10;;;;;;;24.11;49.00;98459.83;270429;1271;22210;-85
2023/03/23 10:44:39;;;;;;;3.20;1.80;;;;;;;24.67;47.69;98456.70;269918;1272;22692;-85
2023/03/23 10:50:44;;;;;;;5.00;2.30;;;;;;;24.40;44.71;98454.55;271180;1263;23102;-85
2023/03/23 10:56:45;;;;;;;2.00;1.40;;;;;;;23.49;44.01;98450.45;272893;1272;22387;-85
2023/03/23 11:03:02;;;;;;;2.80;1.60;;;;;;;23.95;44.06;98443.08;273052;1271;22188;-85
2023/03/23 11:09:17;;;;;;;3.10;2.10;;;;;;;24.81;41.83;98443.52;270982;1271;23294;-86
2023/03/23 11:15:28;;;;;;;6.20;2.00;;;;;;;24.99;39.61;98432.27;269749;1271;22198;-85
2023/03/23 11:21:32;;;;;;;2.80;2.10;;;;;;;25.10;38.36;98428.98;272153;1271;22528;-85
2023/03/23 11:27:34;;;;;;;4.00;2.10;;;;;;;25.16;37.50;98428.81;269950;1271;22627;-85
2023/03/23 11:34:00;;;;;;;4.80;2.70;;;;;;;25.19;36.43;98426.48;270613;1271;22485;-85
2023/03/23 11:40:06;;;;;;;;;;;;;;;24.94;34.34;98414.55;271032;1262;22503;-86
2023/03/23 11:46:30;;;;;;;2.40;1.80;;;;;;;24.62;34.80;98416.27;273129;1271;22441;-86
2023/03/23 11:53:30;;;;;;;4.00;2.30;;;;;;;24.47;34.60;98414.52;273304;1271;22405;-85
2023/03/23 11:59:33;;;;;;;2.70;1.90;;;;;;;23.55;33.63;98417.70;273334;1271;22278;-85
2023/03/23 12:06:12;;;;;;;5.50;2.20;;;;;;;22.60;34.92;98416.10;273178;1271;22140;-86
2023/03/23 12:12:36;;;;;;;6.30;2.60;;;;;;;22.07;35.38;98421.71;273205;1264;22177;-85
2023/03/23 12:19:36;;;;;;;4.60;2.20;;;;;;;21.51;36.09;98420.96;273129;1270;22224;-84
2023/03/23 12:26:21;;;;;;;5.30;2.50;;;;;;;21.14;36.79;98418.00;272594;1271;22537;-83
2023/03/23 12:33:18;;;;;;;4.30;2.50;;;;;;;20.71;37.30;98416.80;270129;1272;23311;-85
2023/03/23 12:40:35;;;;;;;7.00;3.00;;;;;;;20.39;38.11;98417.63;269930;1269;22613;-84
2023/03/23 12:47:24;;;;;;;8.10;2.90;;;;;;;20.12;38.38;98418.77;270003;1260;22533;-84
2023/03/23 12:54:19;;;;;;;7.00;2.80;;;;;;;20.02;39.12;98412.23;269990;1272;22646;-83
2023/03/23 13:01:00;;;;;;;5.40;2.50;;;;;;;19.96;39.90;98408.25;269974;1272;23534;-84
2023/03/23 13:07:25;;;;;;;8.60;3.50;;;;;;;19.81;39.79;98412.64;272290;1271;22647;-84
2023/03/23 13:14:00;;;;;;;7.30;3.00;;;;;;;19.60;40.26;98411.48;269361;1272;23131;-84
2023/03/23 13:20:41;;;;;;;12.80;3.80;;;;;;;19.34;41.11;98418.06;269524;1270;24196;-85
2023/03/23 13:26:43;;;;;;;12.40;3.60;;;;;;;19.03;41.98;98419.55;271734;1272;22441;-85
2023/03/23 13:33:11;;;;;;;9.50;4.20;;;;;;;18.82;42.32;98418.23;273167;1272;22546;-85
2023/03/23 13:39:56;;;;;;;9.20;3.80;;;;;;;18.63;42.70;98414.13;272855;1271;22406;-85
2023/03/23 13:46:19;;;;;;;7.00;3.30;;;;;;;18.50;43.49;98404.63;271716;1271;23259;-86
2023/03/23 13:52:51;;;;;;;11.40;4.20;;;;;;;18.45;44.02;98410.01;273326;1262;22340;-86
2023/03/23 13:59:14;;;;;;;13.90;3.70;;;;;;;18.38;44.46;98411.29;271250;1272;22568;-87
2023/03/23 14:05:43;;;;;;;5.70;2.50;;;;;;;18.34;44.83;98412.83;269935;1271;22562;-84
2023/03/23 14:11:57;;;;;;;6.30;2.60;;;;;;;18.31;44.98;98402.25;270404;1271;22359;-86
2023/03/23 14:18:02;;;;;;;8.80;2.80;;;;;;;18.25;45.27;98400.05;270467;1270;22557;-86
2023/03/23 14:24:12;;;;;;;9.70;2.40;;;;;;;18.17;45.49;98398.94;271860;1271;23131;-85
2023/03/23 14:30:39;;;;;;;8.00;2.40;;;;;;;18.14;46.05;98392.27;273138;1256;22385;-85
2023/03/23 14:36:41;;;;;;;;;;;;;;;18.22;46.34;98390.39;272660;1270;23262;-85
2023/03/23 14:43:05;;;;;;;5.30;2.10;;;;;;;18.27;45.97;98387.02;270780;1271;23711;-85
2023/03/23 14:49:17;;;;;;;5.80;2.90;;;;;;;18.22;47.02;98388.43;271154;1272;23063;-85
2023/03/23 14:55:21;;;;;;;5.40;3.20;;;;;;;18.18;47.34;98385.52;272211;1272;22392;-85
2023/03/23 15:02:10;;;;;;;8.50;3.10;;;;;;;18.20;47.17;98384.82;272234;1271;22509;-86
2023/03/23 15:08:22;;;;;;;6.70;3.20;;;;;;;18.18;47.36;98381.41;270635;1270;22530;-85
2023/03/23 15:14:48;;;;;;;6.10;3.60;;;;;;;18.15;47.29;98384.81;271148;1271;23208;-85
2023/03/23 15:21:38;;;;;;;7.10;3.10;;;;;;;18.07;47.20;98386.16;270992;1271;24011;-85
2023/03/23 15:27:43;;;;;;;9.50;3.90;;;;;;;17.96;47.61;98385.53;270023;1271;23332;-86
2023/03/23 15:33:45;;;;;;;9.80;3.80;;;;;;;17.81;47.75;98384.36;271402;1272;23502;-85
2023/03/23 15:39:47;;;;;;;12.30;4.40;;;;;;;17.72;48.01;98386.13;272490;1271;22332;-85
2023/03/23 15:46:30;;;;;;;7.70;3.70;;;;;;;17.62;48.44;98392.73;270805;1270;22657;-85
2023/03/23 15:52:37;;;;;;;12.90;4.10;;;;;;;17.51;48.61;98385.35;270606;1270;22641;-86
2023/03/23 15:59:02;;;;;;;7.30;3.90;;;;;;;17.41;48.83;98380.60;272941;1271;23389;-85
2023/03/23 16:05:05;;;;;;;10.30;4.80;;;;;;;17.25;49.19;98378.95;273131;1270;22219;-84
2023/03/23 16:11:27;;;;;;;7.40;4.60;;;;;;;17.14;49.48;98383.25;272443;1272;22387;-85
2023/03/23 16:17:51;;;;;;;8.40;4.70;;;;;;;17.08;49.18;98381.27;270089;1269;22540;-84
2023/03/23 16:23:54;;;;;;;7.60;5.50;;;;;;;16.99;49.31;98386.54;269697;1271;25076;-84
2023/03/23 16:29:57;;;;;;;9.80;6.30;;;;;;;16.87;49.52;98385.24;270256;1272;25453;-84
2023/03/23 16:36:00;;;;;;;8.90;6.20;;;;;;;16.75;49.73;98386.48;271442;1272;22405;-84
2023/03/23 16:42:02;;;;;;;12.50;5.60;;;;;;;16.66;49.52;98384.01;270867;1265;22605;-85
2023/03/23 16:48:06;;;;;;;8.70;5.10;;;;;;;16.55;49.65;98383.54;270679;1271;135061;-85
2023/03/23 16:54:12;;;;;;;10.80;5.60;;;;;;;16.43;49.74;98383.25;270037;1271;22551;-86
2023/03/23 17:00:34;;;;;;;9.90;5.00;;;;;;;16.28;49.90;98388.05;270446;1271;22556;-85
2023/03/23 17:07:01;;;;;;;9.10;4.60;;;;;;;16.14;49.82;98386.08;272061;1271;22292;-84
2023/03/23 17:13:24;;;;;;;7.20;4.20;;;;;;;15.99;49.72;98394.98;270407;1270;22641;-85
2023/03/23 17:19:26;;;;;;;9.20;4.80;;;;;;;15.83;49.72;98395.45;269680;1255;22539;-84
2023/03/23 17:25:29;;;;;;;9.20;4.50;;;;;;;15.66;49.89;98404.58;269732;1272;25334;-85
2023/03/23 17:31:36;;;;;;;10.10;5.40;;;;;;;15.48;50.40;98404.92;270521;1259;24302;-85
2023/03/23 17:37:38;;;;;;;11.00;6.00;;;;;;;15.31;50.66;98404.65;271211;1263;22559;-84
2023/03/23 17:43:44;;;;;;;9.50;5.90;;;;;;;15.20;50.87;98403.64;272652;1272;22211;-84
2023/03/23 17:50:07;;;;;;;12.70;6.30;;;;;;;15.14;50.95;98402.50;272163;1271;22479;-84
2023/03/23 17:56:09;;;;;;;10.20;6.20;;;;;;;15.07;50.99;98406.00;272678;1271;22555;-85
2023/03/23 18:02:12;;;;;;;14.50;7.00;;;;;;;14.96;51.12;98417.82;272164;1271;23352;-86
2023/03/23 18:08:14;;;;;;;16.30;7.60;;;;;;;14.85;51.29;98424.52;272983;1271;22352;-85
2023/03/23 18:14:21;;;;;;;15.20;7.30;;;;;;;14.75;51.61;98433.65;271494;1272;22618;-85
2023/03/23 18:20:23;;;;;;;17.10;7.80;;;;;;;14.64;52.09;98440.35;273005;1271;22886;-86
2023/03/23 18:26:26;;;;;;;15.30;8.10;;;;;;;14.55;52.40;98435.83;272984;1271;22340;-85
2023/03/23 18:32:28;;;;;;;17.50;9.30;;;;;;;14.45;52.55;98427.15;272614;1272;26647;-83
2023/03/23 18:38:30;;;;;;;21.30;8.70;;;;;;;14.28;52.83;98433.58;272704;1271;22431;-85
2023/03/23 18:44:58;;;;;;;25.10;10.70;;;;;;;14.08;53.44;98443.23;265527;1272;10001790;-87
2023/03/23 18:51:01;;;;;;;19.30;11.20;;;;;;;13.92;53.85;98455.66;270983;1273;22952;-85
2023/03/23 18:57:04;;;;;;;21.20;11.00;;;;;;;13.87;54.42;98467.45;273079;1271;22442;-85
2023/03/23 19:03:06;;;;;;;19.20;11.00;;;;;;;13.83;55.08;98473.77;272941;1272;22338;-85
2023/03/23 19:09:15;;;;;;;21.20;10.80;;;;;;;13.79;55.38;98482.14;272769;1272;22428;-85
2023/03/23 19:15:17;;;;;;;23.70;12.30;;;;;;;13.86;54.90;98483.98;272879;1272;22402;-85
2023/03/23 19:21:19;;;;;;;26.30;14.00;;;;;;;13.95;54.83;98482.94;272851;1271;22411;-85
2023/03/23 19:27:20;;;;;;;32.60;15.20;;;;;;;13.97;54.95;98481.41;271623;1274;22439;-85
2023/03/23 19:33:24;;;;;;;27.50;14.60;;;;;;;13.92;55.43;98480.83;272765;1272;22391;-85
2023/03/23 19:39:26;;;;;;;24.90;12.70;;;;;;;13.85;55.75;98483.89;272547;1272;25424;-84
2023/03/23 19:45:27;;;;;;;24.50;13.50;;;;;;;13.81;56.13;98481.50;272305;1272;22521;-85
2023/03/23 19:51:30;;;;;;;21.10;11.10;;;;;;;13.76;56.38;98475.89;272801;1274;24059;-85
2023/03/23 19:57:51;;;;;;;22.00;11.20;;;;;;;13.67;56.79;98474.63;271215;1271;22585;-85
2023/03/23 20:03:54;;;;;;;12.70;7.40;;;;;;;13.58;56.99;98471.98;272914;1270;22384;-85
2023/03/23 20:09:56;;;;;;;13.80;7.90;;;;;;;13.65;56.89;98458.31;271681;1275;22580;-85
2023/03/23 20:16:17;;;;;;;16.10;7.80;;;;;;;13.72;57.12;98466.58;272369;1272;22325;-85
2023/03/23 20:22:27;;;;;;;14.80;7.80;;;;;;;13.76;57.23;98478.40;272561;1267;22375;-85
2023/03/23 20:28:30;;;;;;;15.80;8.00;;;;;;;13.78;57.32;98483.42;273034;1272;23406;-85
2023/03/23 20:34:35;;;;;;;11.80;7.60;;;;;;;13.78;57.33;98484.13;271004;1272;22420;-84
2023/03/23 20:40:37;;;;;;;14.30;8.10;;;;;;;13.81;57.71;98488.80;272190;1273;22642;-85
2023/03/23 20:46:45;;;;;;;11.20;7.50;;;;;;;13.87;58.01;98494.88;272452;1272;22489;-84
2023/03/23 20:52:48;;;;;;;;;;;;;;;13.95;58.20;98499.82;272852;1272;23668;-85
2023/03/23 20:58:50;;;;;;;12.30;7.20;;;;;;;14.03;58.33;98501.88;272943;1271;22261;-85
2023/03/23 21:04:52;;;;;;;12.40;6.90;;;;;;;14.03;58.55;98505.09;272923;1272;23680;-85
2023/03/23 21:10:55;;;;;;;13.80;6.60;;;;;;;14.05;58.88;98509.71;272850;1272;23294;-85
2023/03/23 21:17:00;;;;;;;10.40;5.30;;;;;;;14.06;59.22;98512.29;271345;1272;22630;-84
2023/03/23 21:23:45;;;;;;;11.60;6.00;;;;;;;14.08;59.86;98509.60;271217;1273;22511;-84
2023/03/23 21:29:58;;;;;;;7.90;5.10;;;;;;;14.11;59.61;98506.51;270506;1272;23314;-85
2023/03/23 21:36:56;;;;;;;9.10;4.90;;;;;;;14.25;59.66;98492.15;271887;1274;22228;-85
2023/03/23 21:42:57;;;;;;;8.50;4.90;;;;;;;14.35;59.54;98484.09;272005;1263;22555;-85
2023/03/23 21:48:59;;;;;;;10.70;5.70;;;;;;;14.31;59.47;98479.25;271012;1272;22525;-85
2023/03/23 21:55:03;;;;;;;10.10;4.90;;;;;;;14.20;59.58;98489.98;271581;1275;24976;-85
2023/03/23 22:01:08;;;;;;;12.20;5.60;;;;;;;14.10;59.61;98493.06;272873;1260;22927;-87
2023/03/23 22:07:11;;;;;;;12.20;5.90;;;;;;;14.02;59.73;98497.09;272647;1272;22483;-83
2023/03/23 22:13:54;;;;;;;8.80;5.50;;;;;;;13.91;60.00;98501.67;271216;1275;22198;-85
2023/03/23 22:19:56;;;;;;;10.80;5.20;;;;;;;13.86;60.24;98501.56;270498;1274;24258;-84
2023/03/23 22:25:58;;;;;;;9.10;5.60;;;;;;;14.01;60.53;98511.10;269980;1276;23411;-84
2023/03/23 22:32:00;;;;;;;12.30;5.10;;;;;;;14.07;60.70;98515.20;272385;1277;23688;-85
2023/03/23 22:38:47;;;;;;;12.50;5.10;;;;;;;14.09;61.11;98515.80;272636;1273;22535;-85
2023/03/23 22:44:49;;;;;;;8.20;4.80;;;;;;;14.01;61.52;98519.27;273356;1271;23293;-85
2023/03/23 22:50:51;;;;;;;8.30;4.50;;;;;;;13.95;61.73;98526.41;271505;1270;23016;-85
2023/03/23 22:56:53;;;;;;;13.50;5.20;;;;;;;14.01;61.49;98527.36;273192;1270;22434;-86
2023/03/23 23:02:56;;;;;;;11.50;5.50;;;;;;;14.06;61.65;98530.23;270898;1270;22918;-84
2023/03/23 23:08:57;;;;;;;14.60;5.40;;;;;;;13.99;61.80;98527.77;271379;1270;22479;-85
2023/03/23 23:15:01;;;;;;;11.10;5.50;;;;;;;13.95;61.83;98524.05;272039;1270;22569;-85
2023/03/23 23:21:29;;;;;;;11.80;6.30;;;;;;;13.90;62.04;98524.17;271017;1270;24735;-85
2023/03/23 23:27:45;;;;;;;10.70;6.30;;;;;;;13.95;62.02;98527.34;270331;1270;22553;-86
2023/03/23 23:33:48;;;;;;;11.00;5.60;;;;;;;13.90;62.23;98522.20;270614;1272;22555;-86
2023/03/23 23:40:13;;;;;;;12.20;5.90;;;;;;;13.78;62.36;98516.89;269903;1270;22556;-85
2023/03/23 23:46:16;;;;;;;12.00;6.00;;;;;;;13.67;62.58;98516.29;270510;1270;22882;-86
2023/03/23 23:52:21;;;;;;;9.70;5.70;;;;;;;13.54;63.03;98514.76;270736;1270;24443;-85
2023/03/23 23:58:44;;;;;;;10.50;5.10;;;;;;;13.42;63.42;98515.48;270306;1268;22378;-85
